createdAt,value
2022-12-16T00:00:01.603Z,-2.10
2022-12-16T00:02:31.760Z,-2.10
2022-12-16T00:05:02.124Z,-2.10
2022-12-16T00:07:34.929Z,-2.20
2022-12-16T00:10:05.060Z,-2.20
2022-12-16T00:12:35.052Z,-2.20
2022-12-16T00:15:05.139Z,-2.20
2022-12-16T00:17:36.254Z,-2.20
2022-12-16T00:20:06.800Z,-2.20
2022-12-16T00:22:39.372Z,-2.30
2022-12-16T00:25:11.412Z,-2.30
2022-12-16T00:27:41.427Z,-2.30
2022-12-16T00:30:13.440Z,-2.30
2022-12-16T00:32:43.473Z,-2.30
2022-12-16T00:35:13.466Z,-2.30
2022-12-16T00:37:46.065Z,-2.40
2022-12-16T00:40:16.297Z,-2.40
2022-12-16T00:42:46.385Z,-2.40
2022-12-16T00:45:16.815Z,-2.30
2022-12-16T00:47:46.868Z,-2.40
2022-12-16T00:50:16.983Z,-2.40
2022-12-16T00:52:50.060Z,-2.40
2022-12-16T00:55:21.446Z,-2.40
2022-12-16T00:57:51.745Z,-2.40
2022-12-16T01:00:22.514Z,-2.40
2022-12-16T01:02:54.813Z,-2.40
2022-12-16T01:05:27.518Z,-2.50
2022-12-16T01:08:00.422Z,-2.50
2022-12-16T01:10:31.486Z,-2.50
2022-12-16T01:13:01.471Z,-2.50
2022-12-16T01:15:31.496Z,-2.50
2022-12-16T01:18:01.579Z,-2.50
2022-12-16T01:20:31.666Z,-2.50
2022-12-16T01:23:04.264Z,-2.50
2022-12-16T01:25:34.424Z,-2.50
2022-12-16T01:28:04.559Z,-2.50
2022-12-16T01:30:34.823Z,-2.50
2022-12-16T01:33:04.973Z,-2.50
2022-12-16T01:38:27.615Z,-2.50
2022-12-16T01:40:57.811Z,-2.50
2022-12-16T01:43:31.643Z,-2.50
2022-12-16T01:46:07.905Z,-2.50
2022-12-16T01:48:55.120Z,-2.40
2022-12-16T01:51:31.295Z,-2.40
2022-12-16T01:54:09.547Z,-2.50
2022-12-16T01:56:47.408Z,-2.50
2022-12-16T01:59:21.306Z,-2.50
2022-12-16T02:01:51.490Z,-2.50
2022-12-16T02:04:21.597Z,-2.50
2022-12-16T02:06:52.062Z,-2.50
2022-12-16T02:09:24.931Z,-2.40
2022-12-16T02:12:20.475Z,-2.50
2022-12-16T02:15:16.948Z,-2.50
2022-12-16T02:18:02.594Z,-2.40
2022-12-16T02:21:20.292Z,-2.40
2022-12-16T02:24:52.988Z,-2.40
2022-12-16T02:27:53.008Z,-2.50
2022-12-16T02:30:55.257Z,-2.50
2022-12-16T02:34:04.908Z,-2.40
2022-12-16T02:36:57.336Z,-2.40
2022-12-16T02:39:38.164Z,-2.50
2022-12-16T02:42:17.643Z,-2.50
2022-12-16T02:45:00.223Z,-2.40
2022-12-16T02:47:34.186Z,-2.50
2022-12-16T02:50:04.622Z,-2.50
2022-12-16T02:52:37.861Z,-2.50
2022-12-16T02:55:11.787Z,-2.50
2022-12-16T02:58:06.059Z,-2.50
2022-12-16T03:00:48.200Z,-2.50
2022-12-16T03:03:30.977Z,-2.50
2022-12-16T03:06:04.636Z,-2.60
2022-12-16T03:08:42.369Z,-2.60
2022-12-16T03:11:12.672Z,-2.60
2022-12-16T03:13:49.294Z,-2.70
2022-12-16T03:16:26.203Z,-2.70
2022-12-16T03:19:05.544Z,-2.70
2022-12-16T03:21:42.350Z,-2.70
2022-12-16T03:24:14.618Z,-2.70
2022-12-16T03:26:54.263Z,-2.70
2022-12-16T03:29:33.467Z,-2.70
2022-12-16T03:32:08.263Z,-2.70
2022-12-16T03:34:47.695Z,-2.70
2022-12-16T03:37:18.060Z,-2.70
2022-12-16T03:39:53.449Z,-2.70
2022-12-16T03:42:23.388Z,-2.70
2022-12-16T03:44:53.885Z,-2.60
2022-12-16T03:47:24.291Z,-2.70
2022-12-16T03:49:56.966Z,-2.70
2022-12-16T03:52:26.956Z,-2.70
2022-12-16T03:54:58.088Z,-2.70
2022-12-16T03:57:28.196Z,-2.70
2022-12-16T03:59:58.176Z,-2.70
2022-12-16T04:02:28.352Z,-2.70
2022-12-16T04:05:01.033Z,-2.70
2022-12-16T04:07:31.217Z,-2.70
2022-12-16T04:10:01.170Z,-2.70
2022-12-16T04:12:43.639Z,-2.70
2022-12-16T04:15:27.143Z,-2.70
2022-12-16T04:18:09.752Z,-2.70
2022-12-16T04:21:00.856Z,-2.70
2022-12-16T04:23:46.257Z,-2.70
2022-12-16T04:26:16.510Z,-2.70
2022-12-16T04:28:46.481Z,-2.70
2022-12-16T04:31:16.703Z,-2.70
2022-12-16T04:33:59.354Z,-2.70
2022-12-16T04:36:44.199Z,-2.60
2022-12-16T04:39:26.682Z,-2.70
2022-12-16T04:42:09.695Z,-2.70
2022-12-16T04:45:01.008Z,-2.70
2022-12-16T04:47:43.535Z,-2.70
2022-12-16T04:50:26.112Z,-2.70
2022-12-16T04:53:11.525Z,-2.70
2022-12-16T04:55:57.904Z,-2.70
2022-12-16T04:58:43.143Z,-2.80
2022-12-16T05:01:25.818Z,-2.80
2022-12-16T05:04:08.431Z,-2.80
2022-12-16T05:06:50.981Z,-2.80
2022-12-16T05:09:36.050Z,-2.90
2022-12-16T05:12:19.148Z,-2.90
2022-12-16T05:15:01.611Z,-2.80
2022-12-16T05:17:44.128Z,-2.90
2022-12-16T05:20:27.067Z,-2.80
2022-12-16T05:23:11.603Z,-2.90
2022-12-16T05:25:56.714Z,-2.90
2022-12-16T05:28:39.206Z,-2.90
2022-12-16T05:31:21.791Z,-2.90
2022-12-16T05:34:04.355Z,-2.90
2022-12-16T05:36:46.880Z,-2.90
2022-12-16T05:39:29.429Z,-2.90
2022-12-16T05:42:14.559Z,-2.90
2022-12-16T05:44:57.085Z,-2.90
2022-12-16T05:47:40.153Z,-2.90
2022-12-16T05:50:23.741Z,-2.90
2022-12-16T05:53:06.670Z,-2.90
2022-12-16T05:55:49.287Z,-2.90
2022-12-16T05:58:34.504Z,-3.00
2022-12-16T06:01:16.992Z,-3.00
2022-12-16T06:03:59.532Z,-3.00
2022-12-16T06:06:42.183Z,-3.00
2022-12-16T06:09:24.874Z,-3.00
2022-12-16T06:12:07.427Z,-3.00
2022-12-16T06:14:52.548Z,-3.00
2022-12-16T06:17:36.457Z,-3.00
2022-12-16T06:20:32.507Z,-3.00
2022-12-16T06:23:15.024Z,-3.00
2022-12-16T06:25:57.898Z,-2.90
2022-12-16T06:28:45.655Z,-3.00
2022-12-16T06:31:31.230Z,-2.90
2022-12-16T06:34:13.875Z,-2.90
2022-12-16T06:36:56.619Z,-3.00
2022-12-16T06:39:39.236Z,-3.00
2022-12-16T06:42:21.791Z,-3.00
2022-12-16T06:45:04.352Z,-3.00
2022-12-16T06:47:49.621Z,-2.90
2022-12-16T06:50:44.775Z,-3.00
2022-12-16T06:53:27.635Z,-3.00
2022-12-16T06:56:10.164Z,-3.00
2022-12-16T06:58:52.665Z,-3.10
2022-12-16T07:01:35.335Z,-3.00
2022-12-16T07:04:20.870Z,-3.00
2022-12-16T07:07:03.402Z,-3.00
2022-12-16T07:09:51.505Z,-3.00
2022-12-16T07:15:16.970Z,-3.00
2022-12-16T07:18:01.371Z,-3.00
2022-12-16T07:20:46.631Z,-3.00
2022-12-16T07:23:29.150Z,-3.00
2022-12-16T07:26:11.654Z,-2.90
2022-12-16T07:28:54.200Z,-2.90
2022-12-16T07:31:37.119Z,-2.90
2022-12-16T07:34:19.670Z,-2.90
2022-12-16T07:37:04.803Z,-2.90
2022-12-16T07:39:54.299Z,-2.80
2022-12-16T07:42:37.723Z,-2.80
2022-12-16T07:45:21.727Z,-2.70
2022-12-16T07:48:04.994Z,-2.60
2022-12-16T07:50:47.554Z,-2.50
2022-12-16T07:53:32.935Z,-2.50
2022-12-16T07:56:15.771Z,-2.50
2022-12-16T07:58:58.272Z,-2.40
2022-12-16T08:01:40.965Z,-2.40
2022-12-16T08:04:23.621Z,-2.30
2022-12-16T08:07:06.147Z,-2.10
2022-12-16T08:09:51.243Z,-2.00
2022-12-16T08:12:33.754Z,-1.90
2022-12-16T08:15:16.310Z,-1.90
2022-12-16T08:18:04.417Z,-1.80
2022-12-16T08:20:46.967Z,-1.60
2022-12-16T08:23:29.612Z,-1.70
2022-12-16T08:26:14.768Z,-1.60
2022-12-16T08:29:05.527Z,-1.50
2022-12-16T08:31:59.820Z,-1.30
2022-12-16T08:34:42.364Z,-1.40
2022-12-16T08:37:25.108Z,-1.30
2022-12-16T08:43:14.229Z,-1.10
2022-12-16T08:45:56.924Z,-1.10
2022-12-16T08:48:39.428Z,-1.10
2022-12-16T08:51:22.549Z,-1.30
2022-12-16T08:54:05.136Z,-1.40
2022-12-16T08:56:48.138Z,-1.40
2022-12-16T08:59:33.304Z,-1.60
2022-12-16T09:02:16.660Z,-1.60
2022-12-16T09:04:59.544Z,-2.00
2022-12-16T09:07:42.048Z,-2.10
2022-12-16T09:10:24.611Z,-2.00
2022-12-16T09:13:07.330Z,-1.90
2022-12-16T09:15:53.731Z,-2.00
2022-12-16T09:18:36.245Z,-2.10
2022-12-16T09:21:21.588Z,-1.90
2022-12-16T09:24:04.075Z,-1.80
2022-12-16T09:26:46.691Z,-1.70
2022-12-16T09:29:29.226Z,-1.70
2022-12-16T09:32:14.443Z,-1.70
2022-12-16T09:34:56.920Z,-1.80
2022-12-16T09:37:39.408Z,-1.60
2022-12-16T09:40:27.117Z,-1.60
2022-12-16T09:43:23.850Z,-1.70
2022-12-16T09:46:25.374Z,-1.80
2022-12-16T09:49:35.697Z,-1.70
2022-12-16T09:52:24.482Z,-1.80
2022-12-16T09:55:07.303Z,-1.90
2022-12-16T09:57:52.348Z,-1.90
2022-12-16T10:00:38.917Z,-1.90
2022-12-16T10:03:34.828Z,-2.10
2022-12-16T10:06:37.195Z,-2.10
2022-12-16T10:09:31.659Z,-2.20
2022-12-16T10:12:26.524Z,-2.30
2022-12-16T10:15:24.669Z,-2.20
2022-12-16T10:18:07.339Z,-2.20
2022-12-16T10:21:00.220Z,-2.30
2022-12-16T10:23:58.988Z,-2.30
2022-12-16T10:27:04.953Z,-2.30
2022-12-16T10:29:55.632Z,-2.30
2022-12-16T10:32:47.630Z,-2.10
2022-12-16T10:35:38.733Z,-2.10
2022-12-16T10:38:33.755Z,-2.10
2022-12-16T10:41:21.667Z,-2.10
2022-12-16T10:44:05.563Z,-2.10
2022-12-16T10:46:50.803Z,-2.00
2022-12-16T10:49:34.893Z,-2.00
2022-12-16T10:52:17.876Z,-1.90
2022-12-16T10:55:11.411Z,-2.00
2022-12-16T10:58:11.565Z,-2.00
2022-12-16T11:00:59.058Z,-2.00
2022-12-16T11:03:45.216Z,-2.00
2022-12-16T11:06:33.030Z,-1.80
2022-12-16T11:09:36.307Z,-1.60
2022-12-16T11:12:38.965Z,-1.50
2022-12-16T11:15:42.534Z,-1.60
2022-12-16T11:18:28.732Z,-1.60
2022-12-16T11:21:28.645Z,-1.60
2022-12-16T11:24:31.367Z,-1.40
2022-12-16T11:27:16.907Z,-1.50
2022-12-16T11:30:11.465Z,-1.50
2022-12-16T11:33:02.450Z,-1.30
2022-12-16T11:35:52.573Z,-1.30
2022-12-16T11:38:42.679Z,-1.50
2022-12-16T11:41:38.008Z,-1.50
2022-12-16T11:44:29.009Z,-1.60
2022-12-16T11:47:11.480Z,-1.60
2022-12-16T11:49:56.559Z,-1.60
2022-12-16T11:52:39.402Z,-1.60
2022-12-16T11:56:03.393Z,-1.60
2022-12-16T11:58:44.719Z,-1.70
2022-12-16T12:01:35.366Z,-1.70
2022-12-16T12:04:20.905Z,-1.60
2022-12-16T12:07:29.061Z,-1.60
2022-12-16T12:10:29.040Z,-1.60
2022-12-16T12:13:20.870Z,-1.40
2022-12-16T12:16:19.860Z,-1.50
2022-12-16T12:19:19.324Z,-1.40
2022-12-16T12:22:14.493Z,-1.20
2022-12-16T12:25:08.461Z,-1.30
2022-12-16T12:28:01.448Z,-1.20
2022-12-16T12:30:54.648Z,-0.90
2022-12-16T12:33:53.495Z,-0.90
2022-12-16T12:36:49.589Z,-1.00
2022-12-16T12:39:43.057Z,-1.00
2022-12-16T12:42:49.597Z,-1.30
2022-12-16T12:46:10.191Z,-1.30
2022-12-16T12:49:05.890Z,-1.30
2022-12-16T12:52:06.011Z,-1.30
2022-12-16T12:55:00.465Z,-1.40
2022-12-16T12:57:45.803Z,-1.50
2022-12-16T13:00:35.232Z,-1.30
2022-12-16T13:03:29.370Z,-1.30
2022-12-16T13:06:25.257Z,-1.10
2022-12-16T13:09:13.443Z,-1.10
2022-12-16T13:12:44.291Z,-1.10
2022-12-16T13:15:35.514Z,-1.20
2022-12-16T13:18:44.509Z,-1.30
2022-12-16T13:22:03.346Z,-1.40
2022-12-16T13:25:02.214Z,-1.60
2022-12-16T13:28:08.020Z,-1.60
2022-12-16T13:30:51.115Z,-1.60
2022-12-16T13:33:41.722Z,-1.50
2022-12-16T13:36:27.658Z,-1.40
2022-12-16T13:39:14.931Z,-1.50
2022-12-16T13:42:15.299Z,-1.60
2022-12-16T13:45:14.844Z,-1.60
2022-12-16T13:48:20.739Z,-1.60
2022-12-16T13:51:06.411Z,-1.80
2022-12-16T13:53:56.714Z,-2.00
2022-12-16T13:56:48.593Z,-1.90
2022-12-16T13:59:36.556Z,-2.00
2022-12-16T14:02:46.331Z,-2.10
2022-12-16T14:05:42.595Z,-2.00
2022-12-16T14:08:33.005Z,-2.00
2022-12-16T14:11:21.036Z,-1.90
2022-12-16T14:14:16.394Z,-1.90
2022-12-16T14:17:08.200Z,-2.00
2022-12-16T14:20:11.350Z,-2.10
2022-12-16T14:23:32.387Z,-2.20
2022-12-16T14:26:15.948Z,-2.20
2022-12-16T14:29:01.775Z,-2.20
2022-12-16T14:31:53.246Z,-2.20
2022-12-16T14:34:39.056Z,-2.10
2022-12-16T14:37:29.176Z,-2.20
2022-12-16T14:40:11.736Z,-2.20
2022-12-16T14:42:56.745Z,-2.30
2022-12-16T14:45:45.961Z,-2.30
2022-12-16T14:48:47.473Z,-2.50
2022-12-16T14:51:40.200Z,-2.50
2022-12-16T14:54:57.936Z,-2.50
2022-12-16T14:57:42.652Z,-2.40
2022-12-16T15:00:33.032Z,-2.40
2022-12-16T15:03:42.261Z,-2.30
2022-12-16T15:06:33.457Z,-2.40
2022-12-16T15:09:20.882Z,-2.40
2022-12-16T15:12:09.779Z,-2.40
2022-12-16T15:14:56.257Z,-2.40
2022-12-16T15:17:43.691Z,-2.50
2022-12-16T15:20:35.616Z,-2.50
2022-12-16T15:23:18.262Z,-2.50
2022-12-16T15:26:09.413Z,-2.50
2022-12-16T15:28:59.878Z,-2.50
2022-12-16T15:31:51.472Z,-2.50
2022-12-16T15:34:45.323Z,-2.60
2022-12-16T15:37:35.124Z,-2.60
2022-12-16T15:40:18.041Z,-2.50
2022-12-16T15:43:06.494Z,-2.50
2022-12-16T15:45:52.510Z,-2.50
2022-12-16T15:48:40.107Z,-2.50
2022-12-16T15:51:38.351Z,-2.50
2022-12-16T15:54:21.243Z,-2.60
2022-12-16T15:57:13.301Z,-2.60
2022-12-16T16:00:12.810Z,-2.60
2022-12-16T16:03:03.593Z,-2.50
2022-12-16T16:05:47.609Z,-2.50
2022-12-16T16:08:30.121Z,-2.50
2022-12-16T16:11:13.144Z,-2.50
2022-12-16T16:13:59.353Z,-2.40
2022-12-16T16:16:47.021Z,-2.40
2022-12-16T16:19:39.099Z,-2.50
2022-12-16T16:22:26.753Z,-2.50
2022-12-16T16:25:09.265Z,-2.40
2022-12-16T16:27:51.980Z,-2.50
2022-12-16T16:30:34.804Z,-2.40
2022-12-16T16:33:25.840Z,-2.40
2022-12-16T16:36:11.294Z,-2.40
2022-12-16T16:38:53.924Z,-2.30
2022-12-16T16:41:38.940Z,-2.30
2022-12-16T16:44:30.387Z,-2.40
2022-12-16T16:47:14.021Z,-2.40
2022-12-16T16:50:00.806Z,-2.30
2022-12-16T16:52:47.096Z,-2.30
2022-12-16T16:55:32.889Z,-2.30
2022-12-16T16:58:15.682Z,-2.20
2022-12-16T17:00:58.296Z,-2.10
2022-12-16T17:03:41.661Z,-2.10
2022-12-16T17:06:24.730Z,-2.00
2022-12-16T17:09:09.849Z,-2.20
2022-12-16T17:11:54.247Z,-2.20
2022-12-16T17:14:37.236Z,-2.30
2022-12-16T17:17:21.133Z,-2.30
2022-12-16T17:20:03.742Z,-2.30
2022-12-16T17:22:46.585Z,-2.20
2022-12-16T17:25:32.531Z,-2.20
2022-12-16T17:28:15.899Z,-2.30
2022-12-16T17:30:58.502Z,-2.40
2022-12-16T17:33:43.847Z,-2.50
2022-12-16T17:36:31.867Z,-2.50
2022-12-16T17:39:15.339Z,-2.60
2022-12-16T17:42:00.970Z,-2.60
2022-12-16T17:44:43.574Z,-2.60
2022-12-16T17:47:26.147Z,-2.60
2022-12-16T17:50:08.727Z,-2.60
2022-12-16T17:52:51.435Z,-2.50
2022-12-16T17:55:34.235Z,-2.50
2022-12-16T17:58:19.340Z,-2.50
2022-12-16T18:01:01.969Z,-2.60
2022-12-16T18:03:44.715Z,-2.70
2022-12-16T18:06:27.419Z,-2.70
2022-12-16T18:09:09.729Z,-2.70
2022-12-16T18:11:52.346Z,-2.70
2022-12-16T18:14:38.006Z,-2.80
2022-12-16T18:17:20.805Z,-2.80
2022-12-16T18:20:03.363Z,-2.80
2022-12-16T18:22:45.858Z,-2.80
2022-12-16T18:25:28.664Z,-2.80
2022-12-16T18:28:11.200Z,-2.80
2022-12-16T18:30:56.293Z,-2.80
2022-12-16T18:33:38.888Z,-2.70
2022-12-16T18:36:22.354Z,-2.70
2022-12-16T18:39:04.914Z,-2.80
2022-12-16T18:41:47.426Z,-2.80
2022-12-16T18:44:30.362Z,-2.80
2022-12-16T18:47:15.815Z,-2.80
2022-12-16T18:49:58.608Z,-2.80
2022-12-16T18:52:41.250Z,-2.80
2022-12-16T18:55:24.203Z,-2.70
2022-12-16T18:58:20.974Z,-2.80
2022-12-16T19:01:17.877Z,-2.80
2022-12-16T19:04:03.200Z,-2.80
2022-12-16T19:06:45.728Z,-2.80
2022-12-16T19:09:28.254Z,-2.90
2022-12-16T19:12:10.787Z,-2.90
2022-12-16T19:14:53.301Z,-2.90
2022-12-16T19:17:50.786Z,-3.00
2022-12-16T19:20:36.785Z,-2.90
2022-12-16T19:23:19.567Z,-3.00
2022-12-16T19:26:02.087Z,-3.00
2022-12-16T19:28:44.847Z,-3.10
2022-12-16T19:31:32.535Z,-3.10
2022-12-16T19:34:29.995Z,-3.00
2022-12-16T19:37:15.108Z,-2.90
2022-12-16T19:39:57.939Z,-2.90
2022-12-16T19:42:40.695Z,-2.90
2022-12-16T19:45:24.767Z,-3.00
2022-12-16T19:48:07.647Z,-3.00
2022-12-16T19:50:50.333Z,-3.00
2022-12-16T19:53:35.592Z,-3.00
2022-12-16T19:56:18.173Z,-3.10
2022-12-16T19:59:01.281Z,-3.10
2022-12-16T20:01:44.574Z,-3.10
2022-12-16T20:04:27.535Z,-3.10
2022-12-16T20:07:10.078Z,-3.10
2022-12-16T20:09:56.113Z,-3.10
2022-12-16T20:12:38.754Z,-3.10
2022-12-16T20:15:23.007Z,-3.10
2022-12-16T20:18:05.475Z,-3.10
2022-12-16T20:20:48.128Z,-3.10
2022-12-16T20:23:30.764Z,-3.10
2022-12-16T20:26:17.533Z,-3.10
2022-12-16T20:29:00.881Z,-3.20
2022-12-16T20:31:43.599Z,-3.20
2022-12-16T20:34:26.589Z,-3.20
2022-12-16T20:37:09.116Z,-3.20
2022-12-16T20:39:56.449Z,-3.30
2022-12-16T20:42:43.610Z,-3.30
2022-12-16T20:45:31.312Z,-3.20
2022-12-16T20:48:13.836Z,-3.20
2022-12-16T20:50:56.605Z,-3.30
2022-12-16T20:53:39.678Z,-3.20
2022-12-16T20:56:22.649Z,-3.20
2022-12-16T20:59:07.830Z,-3.20
2022-12-16T21:04:54.137Z,-3.20
2022-12-16T21:07:37.510Z,-3.20
2022-12-16T21:10:21.393Z,-3.10
2022-12-16T21:13:06.993Z,-3.10
2022-12-16T21:15:53.453Z,-3.10
2022-12-16T21:18:40.005Z,-3.00
2022-12-16T21:21:37.520Z,-3.10
2022-12-16T21:24:20.715Z,-3.00
2022-12-16T21:27:03.277Z,-2.90
2022-12-16T21:29:45.819Z,-3.00
2022-12-16T21:32:30.933Z,-2.90
2022-12-16T21:35:13.428Z,-2.80
2022-12-16T21:37:55.908Z,-2.70
2022-12-16T21:40:39.083Z,-2.60
2022-12-16T21:43:21.642Z,-2.50
2022-12-16T21:46:07.940Z,-2.40
2022-12-16T21:48:53.095Z,-2.50
2022-12-16T21:51:38.947Z,-2.50
2022-12-16T21:54:21.583Z,-2.50
2022-12-16T21:57:04.296Z,-2.70
2022-12-16T21:59:46.850Z,-2.70
2022-12-16T22:02:29.763Z,-2.80
2022-12-16T22:05:15.067Z,-2.80
2022-12-16T22:07:57.891Z,-2.90
2022-12-16T22:10:40.538Z,-2.80
2022-12-16T22:13:23.059Z,-2.90
2022-12-16T22:16:11.231Z,-3.00
2022-12-16T22:18:53.775Z,-3.10
2022-12-16T22:21:41.471Z,-3.00
2022-12-16T22:24:24.267Z,-3.10
2022-12-16T22:27:06.804Z,-3.10
2022-12-16T22:29:49.332Z,-3.10
2022-12-16T22:32:31.844Z,-3.20
2022-12-16T22:35:14.370Z,-3.40
2022-12-16T22:37:59.565Z,-3.50
2022-12-16T22:40:42.096Z,-3.60
2022-12-16T22:43:24.699Z,-3.70
2022-12-16T22:46:14.823Z,-3.80
2022-12-16T22:48:57.360Z,-3.90
2022-12-16T22:51:39.898Z,-4.00
2022-12-16T22:54:24.973Z,-4.00
2022-12-16T22:57:07.534Z,-4.10
2022-12-16T22:59:50.219Z,-4.20
2022-12-16T23:02:32.733Z,-4.40
2022-12-16T23:05:15.359Z,-4.70
2022-12-16T23:07:58.011Z,-4.60
2022-12-16T23:10:43.318Z,-4.70
2022-12-16T23:13:27.809Z,-4.70
2022-12-16T23:16:10.448Z,-4.70
2022-12-16T23:18:56.459Z,-4.90
2022-12-16T23:21:54.052Z,-5.10
2022-12-16T23:24:36.584Z,-5.20
2022-12-16T23:27:21.822Z,-5.20
2022-12-16T23:30:04.361Z,-5.40
2022-12-16T23:32:46.906Z,-5.50
2022-12-16T23:35:29.646Z,-5.60
2022-12-16T23:38:16.706Z,-5.60
2022-12-16T23:40:59.421Z,-5.60
2022-12-16T23:43:44.707Z,-5.50
2022-12-16T23:46:27.352Z,-5.60
2022-12-16T23:49:09.966Z,-5.50
2022-12-16T23:51:52.475Z,-5.50
2022-12-16T23:54:34.992Z,-5.60
2022-12-16T23:57:17.524Z,-5.50
